createdAt,value
2019-01-19T00:00:30.836Z,9.80
2019-01-19T00:01:30.839Z,12.60
2019-01-19T00:03:20.252Z,10.30
2019-01-19T00:04:20.242Z,10.30
2019-01-19T00:05:20.265Z,10.80
2019-01-19T00:06:20.218Z,11.80
2019-01-19T00:07:20.214Z,9.60
2019-01-19T00:08:20.258Z,12.50
2019-01-19T00:09:20.275Z,11.50
2019-01-19T00:10:20.181Z,10.80
2019-01-19T00:11:20.197Z,11.70
2019-01-19T00:12:20.171Z,12.40
2019-01-19T00:13:20.166Z,11.20
2019-01-19T00:14:20.142Z,11.50
2019-01-19T00:15:20.135Z,11.10
2019-01-19T00:16:20.114Z,11.20
2019-01-19T00:17:20.129Z,9.60
2019-01-19T00:18:20.111Z,11.30
2019-01-19T00:19:20.149Z,9.70
2019-01-19T00:20:20.078Z,12.00
2019-01-19T00:21:20.070Z,9.70
2019-01-19T00:22:20.120Z,9.10
2019-01-19T00:23:20.142Z,11.20
2019-01-19T00:24:20.036Z,10.60
2019-01-19T00:25:20.040Z,10.00
2019-01-19T00:26:20.082Z,11.40
2019-01-19T00:27:20.013Z,10.50
2019-01-19T00:28:20.005Z,9.50
2019-01-19T00:29:19.995Z,10.30
2019-01-19T00:30:19.973Z,12.40
2019-01-19T00:31:20.032Z,10.80
2019-01-19T00:32:19.964Z,9.20
2019-01-19T00:33:19.952Z,10.90
2019-01-19T00:34:19.937Z,11.50
2019-01-19T00:35:19.952Z,11.70
2019-01-19T00:36:19.933Z,8.80
2019-01-19T00:37:19.898Z,11.10
2019-01-19T00:38:19.889Z,11.00
2019-01-19T00:39:19.940Z,10.60
2019-01-19T00:40:19.866Z,9.60
2019-01-19T00:41:19.880Z,10.30
2019-01-19T00:42:19.848Z,11.50
2019-01-19T00:43:19.852Z,14.40
2019-01-19T00:44:19.826Z,12.80
2019-01-19T00:45:19.816Z,12.30
2019-01-19T00:46:19.806Z,12.10
2019-01-19T00:47:19.816Z,11.30
2019-01-19T00:48:19.835Z,11.90
2019-01-19T00:49:19.796Z,13.60
2019-01-19T00:50:19.773Z,9.10
2019-01-19T00:51:19.751Z,8.90
2019-01-19T00:52:19.744Z,12.50
2019-01-19T00:53:19.757Z,10.50
2019-01-19T00:54:19.732Z,9.40
2019-01-19T00:55:19.751Z,11.70
2019-01-19T00:56:19.704Z,11.60
2019-01-19T00:57:19.684Z,10.20
2019-01-19T00:58:19.681Z,13.20
2019-01-19T00:59:19.754Z,9.70
2019-01-19T01:00:19.670Z,11.90
2019-01-19T01:01:19.645Z,10.60
2019-01-19T01:02:19.639Z,10.80
2019-01-19T01:03:19.626Z,10.60
2019-01-19T01:04:19.648Z,11.10
2019-01-19T01:05:25.245Z,11.50
2019-01-19T01:06:20.590Z,9.40
2019-01-19T01:07:19.584Z,12.10
2019-01-19T01:08:19.584Z,10.80
2019-01-19T01:09:19.562Z,9.30
2019-01-19T01:10:19.557Z,11.10
2019-01-19T01:11:19.553Z,12.30
2019-01-19T01:12:19.597Z,12.00
2019-01-19T01:13:19.516Z,11.80
2019-01-19T01:14:19.522Z,10.60
2019-01-19T01:15:19.503Z,11.00
2019-01-19T01:16:19.503Z,11.00
2019-01-19T01:17:19.503Z,11.80
2019-01-19T01:18:19.500Z,10.70
2019-01-19T01:19:19.455Z,12.50
2019-01-19T01:20:19.445Z,10.30
2019-01-19T01:21:19.430Z,11.40
2019-01-19T01:22:19.526Z,12.40
2019-01-19T01:23:19.433Z,10.80
2019-01-19T01:24:19.413Z,14.50
2019-01-19T01:25:19.391Z,10.60
2019-01-19T01:26:19.372Z,13.90
2019-01-19T01:27:19.375Z,11.50
2019-01-19T01:28:19.368Z,11.50
2019-01-19T01:29:19.401Z,11.20
2019-01-19T01:30:19.331Z,11.30
2019-01-19T01:31:19.324Z,10.10
2019-01-19T01:32:19.318Z,11.00
2019-01-19T01:33:19.352Z,9.60
2019-01-19T01:34:19.296Z,11.90
2019-01-19T01:35:19.306Z,10.10
2019-01-19T01:36:19.269Z,13.30
2019-01-19T01:37:19.344Z,11.60
2019-01-19T01:38:19.312Z,11.40
2019-01-19T01:39:19.241Z,10.00
2019-01-19T01:40:19.238Z,10.70
2019-01-19T01:41:19.232Z,11.20
2019-01-19T01:42:19.206Z,8.80
2019-01-19T01:43:19.199Z,11.30
2019-01-19T01:44:19.254Z,8.60
2019-01-19T01:45:19.177Z,9.50
2019-01-19T01:46:19.161Z,8.00
2019-01-19T01:47:19.170Z,8.70
2019-01-19T01:48:19.172Z,9.80
2019-01-19T01:49:19.145Z,11.30
2019-01-19T01:50:19.123Z,12.70
2019-01-19T01:51:19.119Z,11.70
2019-01-19T01:52:19.098Z,9.80
2019-01-19T01:53:19.113Z,11.00
2019-01-19T01:54:19.079Z,11.50
2019-01-19T01:55:19.071Z,9.70
2019-01-19T01:56:19.065Z,11.60
2019-01-19T01:57:19.047Z,11.30
2019-01-19T01:58:19.059Z,11.50
2019-01-19T01:59:19.034Z,11.00
2019-01-19T02:00:19.017Z,12.60
2019-01-19T02:01:19.001Z,12.00
2019-01-19T02:02:19.001Z,12.30
2019-01-19T02:03:18.982Z,10.60
2019-01-19T02:04:18.974Z,11.20
2019-01-19T02:05:18.969Z,13.00
2019-01-19T02:06:18.947Z,12.80
2019-01-19T02:07:18.940Z,10.10
2019-01-19T02:08:18.931Z,11.60
2019-01-19T02:09:18.937Z,11.50
2019-01-19T02:10:18.911Z,10.70
2019-01-19T02:11:18.912Z,11.30
2019-01-19T02:12:18.889Z,12.10
2019-01-19T02:13:18.873Z,11.90
2019-01-19T02:14:18.931Z,11.20
2019-01-19T02:15:18.858Z,9.20
2019-01-19T02:16:18.844Z,10.70
2019-01-19T02:17:18.854Z,12.30
2019-01-19T02:18:18.822Z,10.00
2019-01-19T02:19:18.811Z,9.60
2019-01-19T02:20:18.803Z,9.20
2019-01-19T02:21:18.803Z,8.70
2019-01-19T02:22:18.791Z,10.50
2019-01-19T02:23:18.886Z,10.70
2019-01-19T02:24:18.755Z,10.60
2019-01-19T02:25:18.747Z,9.50
2019-01-19T02:26:18.756Z,11.00
2019-01-19T02:27:18.724Z,10.30
2019-01-19T02:28:18.714Z,12.50
2019-01-19T02:29:18.724Z,12.60
2019-01-19T02:30:18.714Z,10.20
2019-01-19T02:31:18.683Z,11.20
2019-01-19T02:32:18.676Z,11.10
2019-01-19T02:33:18.663Z,11.40
2019-01-19T02:34:18.677Z,13.20
2019-01-19T02:35:18.663Z,13.20
2019-01-19T02:36:18.634Z,11.90
2019-01-19T02:37:18.619Z,11.00
2019-01-19T02:38:18.605Z,12.90
2019-01-19T02:39:18.599Z,12.10
2019-01-19T02:40:18.627Z,11.40
2019-01-19T02:41:18.593Z,11.20
2019-01-19T02:42:18.564Z,10.30
2019-01-19T02:43:18.554Z,10.00
2019-01-19T02:44:18.567Z,9.10
2019-01-19T02:45:18.542Z,10.00
2019-01-19T02:46:18.533Z,14.40
2019-01-19T02:47:18.536Z,8.70
2019-01-19T02:48:18.497Z,11.70
2019-01-19T02:49:18.492Z,10.00
2019-01-19T02:50:18.478Z,10.30
2019-01-19T02:51:18.472Z,10.20
2019-01-19T02:52:18.475Z,10.70
2019-01-19T02:53:18.466Z,11.10
2019-01-19T02:54:18.446Z,11.70
2019-01-19T02:55:18.431Z,13.30
2019-01-19T02:56:18.419Z,14.30
2019-01-19T02:57:18.409Z,12.40
2019-01-19T02:58:18.405Z,10.70
2019-01-19T02:59:18.428Z,11.80
2019-01-19T03:00:18.376Z,12.10
2019-01-19T03:01:18.374Z,10.60
2019-01-19T03:02:18.358Z,10.40
2019-01-19T03:03:18.349Z,11.40
2019-01-19T03:04:18.344Z,11.30
2019-01-19T03:05:18.360Z,9.80
2019-01-19T03:06:18.317Z,14.60
2019-01-19T03:07:18.322Z,10.50
2019-01-19T03:08:18.306Z,8.20
2019-01-19T03:09:18.288Z,10.60
2019-01-19T03:10:18.272Z,13.30
2019-01-19T03:11:18.286Z,10.20
2019-01-19T03:12:18.257Z,11.90
2019-01-19T03:13:18.241Z,10.20
2019-01-19T03:14:18.232Z,11.30
2019-01-19T03:15:18.219Z,10.20
2019-01-19T03:16:18.211Z,11.60
2019-01-19T03:17:18.215Z,11.10
2019-01-19T03:18:18.195Z,12.00
2019-01-19T03:19:18.181Z,11.20
2019-01-19T03:20:18.171Z,13.60
2019-01-19T03:21:18.163Z,9.30
2019-01-19T03:22:19.527Z,10.90
2019-01-19T03:23:18.243Z,10.00
2019-01-19T03:24:18.127Z,11.80
2019-01-19T03:25:18.117Z,9.60
2019-01-19T03:26:18.101Z,10.30
2019-01-19T03:27:18.108Z,9.70
2019-01-19T03:28:18.089Z,10.50
2019-01-19T03:29:18.134Z,12.70
2019-01-19T03:30:18.078Z,11.10
2019-01-19T03:31:18.052Z,9.60
2019-01-19T03:32:18.083Z,10.70
2019-01-19T03:33:18.048Z,10.40
2019-01-19T03:34:18.021Z,10.90
2019-01-19T03:35:18.027Z,10.40
2019-01-19T03:36:18.005Z,11.50
2019-01-19T03:37:17.990Z,11.30
2019-01-19T03:38:17.983Z,12.00
2019-01-19T03:39:17.977Z,11.00
2019-01-19T03:40:17.958Z,11.30
2019-01-19T03:41:17.977Z,12.30
2019-01-19T03:42:17.934Z,11.30
2019-01-19T03:43:17.924Z,11.00
2019-01-19T03:44:17.926Z,11.60
2019-01-19T03:45:17.911Z,12.50
2019-01-19T03:46:17.895Z,13.20
2019-01-19T03:47:17.980Z,11.90
2019-01-19T03:48:17.873Z,11.80
2019-01-19T03:49:17.869Z,9.70
2019-01-19T03:50:17.861Z,12.10
2019-01-19T03:51:17.854Z,12.60
2019-01-19T03:52:17.832Z,11.40
2019-01-19T03:53:17.845Z,10.50
2019-01-19T03:54:17.812Z,11.10
2019-01-19T03:55:17.812Z,10.70
2019-01-19T03:56:17.796Z,10.50
2019-01-19T03:57:17.786Z,10.70
2019-01-19T03:58:17.769Z,12.30
2019-01-19T03:59:17.804Z,12.20
2019-01-19T04:00:17.759Z,11.90
2019-01-19T04:01:17.790Z,11.00
2019-01-19T04:02:17.737Z,12.40
2019-01-19T04:03:17.728Z,13.30
2019-01-19T04:04:17.712Z,10.90
2019-01-19T04:05:17.716Z,11.70
2019-01-19T04:06:17.693Z,15.90
2019-01-19T04:07:17.686Z,13.30
2019-01-19T04:08:17.695Z,12.80
2019-01-19T04:09:17.674Z,11.80
2019-01-19T04:10:17.653Z,12.20
2019-01-19T04:11:17.655Z,12.70
2019-01-19T04:12:17.625Z,11.10
2019-01-19T04:13:17.660Z,11.20
2019-01-19T04:14:17.611Z,11.60
2019-01-19T04:15:17.604Z,13.20
2019-01-19T04:16:17.582Z,12.40
2019-01-19T04:17:17.594Z,12.20
2019-01-19T04:18:17.564Z,11.70
2019-01-19T04:19:17.559Z,12.10
2019-01-19T04:20:17.544Z,11.50
2019-01-19T04:21:17.539Z,12.20
2019-01-19T04:22:17.522Z,11.40
2019-01-19T04:23:17.556Z,12.00
2019-01-19T04:24:17.505Z,12.20
2019-01-19T04:25:17.490Z,11.80
2019-01-19T04:26:17.488Z,10.80
2019-01-19T04:27:17.474Z,13.10
2019-01-19T04:28:17.462Z,12.90
2019-01-19T04:29:17.471Z,10.90
2019-01-19T04:30:17.450Z,11.00
2019-01-19T04:31:17.440Z,14.40
2019-01-19T04:32:17.423Z,13.70
2019-01-19T04:33:17.431Z,10.90
2019-01-19T04:34:17.395Z,11.90
2019-01-19T04:35:17.402Z,12.30
2019-01-19T04:36:21.714Z,11.50
2019-01-19T04:37:17.376Z,14.00
2019-01-19T04:38:17.362Z,11.30
2019-01-19T04:39:17.346Z,11.70
2019-01-19T04:40:17.350Z,16.70
2019-01-19T04:41:17.359Z,10.80
2019-01-19T04:42:17.346Z,11.30
2019-01-19T04:43:17.311Z,13.50
2019-01-19T04:44:17.295Z,12.80
2019-01-19T04:45:17.296Z,11.70
2019-01-19T04:46:17.280Z,11.30
2019-01-19T04:47:17.283Z,12.20
2019-01-19T04:48:17.260Z,14.30
2019-01-19T04:49:17.269Z,12.20
2019-01-19T04:50:17.237Z,13.30
2019-01-19T04:51:17.231Z,13.50
2019-01-19T04:52:17.218Z,13.10
2019-01-19T04:53:17.221Z,12.90
2019-01-19T04:54:17.216Z,13.80
2019-01-19T04:55:17.197Z,14.90
2019-01-19T04:56:17.174Z,12.00
2019-01-19T04:57:17.167Z,11.60
2019-01-19T04:58:17.146Z,12.20
2019-01-19T04:59:17.163Z,12.00
2019-01-19T05:00:17.934Z,12.60
2019-01-19T05:01:17.146Z,12.50
2019-01-19T05:02:17.117Z,16.00
2019-01-19T05:03:17.099Z,12.70
2019-01-19T05:04:17.085Z,14.50
2019-01-19T05:05:17.114Z,13.10
2019-01-19T05:06:17.069Z,16.10
2019-01-19T05:07:17.063Z,13.40
2019-01-19T05:08:17.047Z,13.50
2019-01-19T05:09:17.046Z,11.20
2019-01-19T05:10:17.029Z,15.10
2019-01-19T05:11:17.033Z,14.20
2019-01-19T05:12:17.015Z,14.60
2019-01-19T05:13:17.009Z,14.60
2019-01-19T05:14:16.990Z,14.80
2019-01-19T05:15:16.987Z,14.40
2019-01-19T05:16:16.973Z,12.80
2019-01-19T05:17:16.977Z,14.30
2019-01-19T05:18:16.945Z,15.50
2019-01-19T05:19:16.979Z,15.20
2019-01-19T05:20:16.933Z,14.90
2019-01-19T05:21:16.928Z,12.70
2019-01-19T05:22:16.904Z,14.60
2019-01-19T05:23:16.944Z,14.30
2019-01-19T05:24:16.923Z,15.90
2019-01-19T05:25:16.871Z,14.50
2019-01-19T05:26:16.862Z,16.40
2019-01-19T05:27:16.862Z,15.60
2019-01-19T05:28:16.846Z,14.60
2019-01-19T05:29:16.855Z,14.50
2019-01-19T05:30:16.822Z,16.50
2019-01-19T05:31:16.815Z,16.40
2019-01-19T05:32:16.801Z,15.00
2019-01-19T05:33:16.794Z,16.50
2019-01-19T05:34:16.820Z,15.00
2019-01-19T05:35:16.791Z,13.80
2019-01-19T05:36:16.766Z,14.10
2019-01-19T05:37:16.756Z,15.80
2019-01-19T05:38:16.742Z,15.50
2019-01-19T05:39:16.730Z,17.30
2019-01-19T05:40:16.774Z,16.90
2019-01-19T05:41:16.728Z,14.50
2019-01-19T05:42:16.695Z,15.30
2019-01-19T05:43:16.686Z,16.10
2019-01-19T05:44:16.676Z,13.90
2019-01-19T05:45:16.670Z,15.50
2019-01-19T05:46:21.407Z,14.50
2019-01-19T05:47:17.669Z,16.60
2019-01-19T05:48:16.636Z,14.20
2019-01-19T05:49:16.625Z,17.80
2019-01-19T05:50:16.618Z,15.10
2019-01-19T05:51:16.610Z,15.60
2019-01-19T05:52:16.591Z,12.80
2019-01-19T05:53:16.614Z,14.50
2019-01-19T05:54:16.583Z,16.90
2019-01-19T05:55:16.568Z,14.90
2019-01-19T05:56:16.554Z,13.70
2019-01-19T05:57:16.553Z,15.20
2019-01-19T05:58:16.539Z,15.30
2019-01-19T05:59:16.543Z,19.30
2019-01-19T06:00:16.538Z,16.10
2019-01-19T06:01:16.507Z,14.60
2019-01-19T06:02:16.491Z,17.90
2019-01-19T06:03:16.499Z,16.50
2019-01-19T06:04:16.486Z,14.30
2019-01-19T06:05:16.514Z,15.80
2019-01-19T06:06:16.448Z,16.00
2019-01-19T06:07:16.457Z,16.10
2019-01-19T06:08:16.459Z,14.90
2019-01-19T06:09:16.441Z,16.00
2019-01-19T06:10:16.405Z,18.70
2019-01-19T06:11:16.420Z,15.60
2019-01-19T06:12:16.421Z,16.40
2019-01-19T06:13:16.372Z,16.30
2019-01-19T06:14:16.369Z,15.10
2019-01-19T06:15:16.378Z,19.00
2019-01-19T06:16:16.359Z,16.30
2019-01-19T06:17:16.366Z,17.50
2019-01-19T06:18:16.326Z,15.70
2019-01-19T06:19:16.316Z,15.50
2019-01-19T06:20:16.322Z,17.10
2019-01-19T06:21:16.293Z,17.90
2019-01-19T06:22:16.284Z,14.00
2019-01-19T06:23:16.296Z,17.90
2019-01-19T06:24:16.299Z,16.40
2019-01-19T06:25:16.300Z,15.90
2019-01-19T06:26:16.247Z,16.20
2019-01-19T06:27:16.236Z,16.00
2019-01-19T06:28:16.220Z,17.20
2019-01-19T06:29:16.233Z,17.20
2019-01-19T06:30:16.204Z,15.00
2019-01-19T06:31:16.204Z,17.10
2019-01-19T06:32:16.188Z,14.00
2019-01-19T06:33:16.175Z,16.30
2019-01-19T06:34:16.156Z,18.30
2019-01-19T06:35:16.166Z,15.20
2019-01-19T06:36:16.142Z,15.90
2019-01-19T06:37:16.133Z,14.70
2019-01-19T06:38:16.126Z,15.90
2019-01-19T06:39:16.113Z,16.70
2019-01-19T06:40:16.151Z,15.50
2019-01-19T06:41:16.144Z,16.90
2019-01-19T06:42:16.081Z,17.90
2019-01-19T06:43:16.071Z,17.40
2019-01-19T06:44:16.060Z,16.20
2019-01-19T06:45:16.051Z,17.60
2019-01-19T06:46:16.038Z,18.60
2019-01-19T06:47:16.044Z,20.60
2019-01-19T06:48:16.025Z,16.10
2019-01-19T06:49:16.017Z,16.40
2019-01-19T06:50:15.997Z,18.50
2019-01-19T06:51:15.986Z,17.60
2019-01-19T06:53:13.129Z,16.90
2019-01-19T06:54:13.087Z,19.30
2019-01-19T06:55:13.081Z,17.70
2019-01-19T06:56:13.061Z,17.90
2019-01-19T06:57:13.061Z,19.50
2019-01-19T06:58:13.046Z,20.00
2019-01-19T06:59:17.399Z,20.20
2019-01-19T07:00:13.023Z,19.80
2019-01-19T07:01:13.011Z,17.10
2019-01-19T07:02:13.001Z,17.70
2019-01-19T07:03:12.997Z,17.60
2019-01-19T07:04:12.988Z,18.50
2019-01-19T07:05:12.991Z,18.90
2019-01-19T07:06:12.959Z,17.60
2019-01-19T07:07:12.956Z,18.40
2019-01-19T07:08:12.939Z,18.70
2019-01-19T07:09:12.936Z,20.30
2019-01-19T07:10:12.919Z,19.30
2019-01-19T07:11:12.930Z,21.10
2019-01-19T07:12:12.910Z,16.80
2019-01-19T07:13:12.885Z,15.90
2019-01-19T07:14:12.894Z,21.60
2019-01-19T07:15:12.871Z,20.20
2019-01-19T07:16:12.866Z,20.80
2019-01-19T07:17:12.862Z,18.70
2019-01-19T07:18:12.839Z,19.70
2019-01-19T07:19:12.830Z,20.90
2019-01-19T07:20:12.823Z,19.90
2019-01-19T07:21:12.811Z,18.80
2019-01-19T07:22:12.802Z,23.00
2019-01-19T07:23:12.824Z,21.00
2019-01-19T07:24:12.782Z,22.60
2019-01-19T07:25:12.769Z,20.80
2019-01-19T07:26:12.766Z,20.20
2019-01-19T07:27:12.753Z,22.70
2019-01-19T07:28:12.746Z,18.70
2019-01-19T07:29:12.769Z,19.80
2019-01-19T07:30:12.727Z,21.60
2019-01-19T07:31:12.714Z,20.10
2019-01-19T07:32:12.701Z,19.40
2019-01-19T07:33:12.692Z,20.30
2019-01-19T07:34:12.689Z,21.10
2019-01-19T07:35:12.712Z,18.40
2019-01-19T07:36:12.688Z,20.30
2019-01-19T07:37:12.647Z,21.60
2019-01-19T07:38:12.640Z,22.90
2019-01-19T07:39:12.638Z,20.40
2019-01-19T07:40:12.663Z,21.60
2019-01-19T07:41:12.631Z,22.70
2019-01-19T07:42:12.602Z,21.50
2019-01-19T07:43:12.580Z,20.30
2019-01-19T07:44:12.580Z,21.90
2019-01-19T07:45:12.567Z,23.80
2019-01-19T07:46:12.561Z,20.00
2019-01-19T07:47:12.599Z,22.70
2019-01-19T07:48:12.541Z,21.30
2019-01-19T07:49:12.525Z,21.70
2019-01-19T07:50:12.514Z,21.00
2019-01-19T07:51:12.503Z,21.40
2019-01-19T07:52:12.503Z,23.80
2019-01-19T07:53:12.512Z,20.70
2019-01-19T07:54:12.474Z,20.90
2019-01-19T07:55:12.467Z,19.80
2019-01-19T07:56:12.454Z,21.90
2019-01-19T07:57:12.453Z,27.00
2019-01-19T07:58:12.445Z,20.90
2019-01-19T07:59:12.458Z,22.40
2019-01-19T08:00:12.432Z,21.30
2019-01-19T08:01:12.400Z,20.80
2019-01-19T08:02:12.394Z,20.60
2019-01-19T08:03:12.403Z,20.60
2019-01-19T08:04:12.375Z,20.70
2019-01-19T08:05:12.378Z,22.80
2019-01-19T08:06:12.355Z,23.10
2019-01-19T08:07:17.195Z,19.90
2019-01-19T08:08:13.333Z,22.30
2019-01-19T08:09:12.344Z,22.60
2019-01-19T08:10:12.308Z,26.20
2019-01-19T08:11:12.419Z,22.80
2019-01-19T08:12:12.296Z,22.50
2019-01-19T08:13:12.277Z,20.90
2019-01-19T08:14:12.271Z,21.40
2019-01-19T08:15:12.266Z,19.90
2019-01-19T08:16:12.267Z,20.50
2019-01-19T08:17:12.258Z,21.50
2019-01-19T08:18:12.226Z,21.80
2019-01-19T08:19:12.245Z,22.70
2019-01-19T08:20:12.204Z,20.60
2019-01-19T08:21:12.201Z,22.00
2019-01-19T08:22:12.184Z,21.80
2019-01-19T08:23:12.194Z,20.60
2019-01-19T08:24:12.177Z,23.70
2019-01-19T08:25:12.158Z,22.20
2019-01-19T08:26:12.143Z,24.80
2019-01-19T08:27:12.137Z,22.60
2019-01-19T08:28:12.121Z,22.80
2019-01-19T08:29:12.124Z,25.60
2019-01-19T08:30:12.098Z,21.60
2019-01-19T08:31:12.108Z,23.90
2019-01-19T08:32:12.079Z,23.10
2019-01-19T08:33:12.345Z,25.40
2019-01-19T08:34:12.062Z,24.30
2019-01-19T08:35:12.060Z,24.30
2019-01-19T08:36:12.037Z,22.10
2019-01-19T08:37:12.220Z,23.10
2019-01-19T08:38:12.573Z,22.30
2019-01-19T08:39:12.005Z,22.90
2019-01-19T08:40:12.006Z,23.60
2019-01-19T08:41:12.023Z,25.10
2019-01-19T08:42:11.977Z,23.30
2019-01-19T08:43:11.981Z,21.80
2019-01-19T08:44:11.996Z,23.60
2019-01-19T08:45:11.942Z,22.00
2019-01-19T08:46:11.932Z,18.90
2019-01-19T08:47:11.942Z,22.70
2019-01-19T08:48:11.909Z,23.10
2019-01-19T08:49:11.924Z,20.30
2019-01-19T08:50:11.903Z,20.40
2019-01-19T08:51:11.878Z,20.90
2019-01-19T08:52:11.877Z,22.70
2019-01-19T08:53:11.884Z,21.20
2019-01-19T08:54:11.849Z,21.10
2019-01-19T08:55:11.858Z,20.10
2019-01-19T08:56:11.876Z,22.20
2019-01-19T08:57:11.819Z,21.80
2019-01-19T08:58:11.842Z,21.50
2019-01-19T08:59:11.816Z,20.20
2019-01-19T09:00:11.817Z,23.80
2019-01-19T09:01:11.786Z,21.30
2019-01-19T09:02:11.794Z,25.10
2019-01-19T09:03:11.763Z,24.50
2019-01-19T09:04:11.749Z,22.30
2019-01-19T09:05:11.759Z,20.70
2019-01-19T09:06:11.724Z,23.00
2019-01-19T09:07:11.724Z,18.90
2019-01-19T09:08:11.705Z,20.30
2019-01-19T09:09:11.692Z,19.60
2019-01-19T09:10:11.679Z,23.10
2019-01-19T09:11:11.692Z,21.70
2019-01-19T09:12:11.657Z,22.70
2019-01-19T09:13:11.670Z,21.50
2019-01-19T09:14:11.660Z,22.70
2019-01-19T09:15:11.628Z,20.30
2019-01-19T09:16:11.613Z,21.90
2019-01-19T09:17:11.993Z,22.30
2019-01-19T09:18:11.662Z,21.80
2019-01-19T09:19:11.593Z,23.80
2019-01-19T09:20:11.678Z,19.90
2019-01-19T09:21:11.686Z,23.80
2019-01-19T09:22:11.626Z,22.60
2019-01-19T09:23:11.654Z,20.10
2019-01-19T09:24:11.534Z,22.80
2019-01-19T09:25:11.533Z,20.80
2019-01-19T09:26:11.514Z,21.20
2019-01-19T09:27:11.507Z,19.30
2019-01-19T09:28:11.491Z,21.00
2019-01-19T09:29:11.520Z,21.70
2019-01-19T09:30:11.485Z,20.00
2019-01-19T09:31:11.472Z,23.30
2019-01-19T09:32:11.499Z,23.80
2019-01-19T09:33:11.447Z,23.40
2019-01-19T09:34:11.428Z,21.90
2019-01-19T09:35:11.437Z,22.60
2019-01-19T09:36:11.415Z,20.00
2019-01-19T09:37:11.399Z,20.70
2019-01-19T09:38:11.424Z,22.40
2019-01-19T09:39:11.379Z,22.20
2019-01-19T09:40:11.360Z,21.40
2019-01-19T09:41:11.366Z,21.90
2019-01-19T09:42:11.343Z,21.50
2019-01-19T09:43:11.345Z,22.40
2019-01-19T09:44:11.326Z,21.50
2019-01-19T09:45:11.316Z,19.70
2019-01-19T09:46:11.301Z,20.20
2019-01-19T09:47:11.306Z,20.50
2019-01-19T09:48:11.295Z,21.80
2019-01-19T09:49:11.307Z,23.20
2019-01-19T09:50:11.254Z,22.20
2019-01-19T09:51:11.246Z,22.20
2019-01-19T09:52:11.236Z,25.30
2019-01-19T09:53:11.282Z,24.40
2019-01-19T09:54:11.321Z,22.80
2019-01-19T09:55:11.211Z,20.00
2019-01-19T09:56:11.192Z,22.00
2019-01-19T09:57:11.182Z,20.90
2019-01-19T09:58:11.169Z,21.00
2019-01-19T09:59:11.172Z,21.70
2019-01-19T10:00:11.147Z,20.60
2019-01-19T10:01:11.140Z,18.90
2019-01-19T10:02:11.126Z,20.50
2019-01-19T10:03:11.121Z,20.60
2019-01-19T10:04:11.107Z,21.80
2019-01-19T10:05:11.107Z,20.70
2019-01-19T10:06:11.100Z,19.70
2019-01-19T10:07:11.077Z,21.90
2019-01-19T10:08:11.064Z,21.30
2019-01-19T10:09:11.050Z,23.50
2019-01-19T10:10:11.053Z,22.40
2019-01-19T10:11:11.047Z,20.80
2019-01-19T10:12:11.021Z,21.70
2019-01-19T10:13:11.005Z,21.40
2019-01-19T10:14:10.998Z,19.80
2019-01-19T10:15:10.988Z,23.80
2019-01-19T10:16:10.979Z,21.00
2019-01-19T10:17:10.982Z,20.20
2019-01-19T10:18:10.953Z,21.50
2019-01-19T10:19:10.942Z,21.80
2019-01-19T10:20:10.929Z,22.00
2019-01-19T10:21:10.916Z,21.70
2019-01-19T10:22:10.963Z,23.10
2019-01-19T10:23:10.933Z,21.90
2019-01-19T10:24:10.895Z,23.00
2019-01-19T10:25:10.881Z,22.90
2019-01-19T10:26:10.866Z,23.00
2019-01-19T10:27:10.865Z,24.60
2019-01-19T10:28:10.845Z,25.10
2019-01-19T10:29:10.852Z,23.70
2019-01-19T10:30:10.827Z,25.40
2019-01-19T10:31:10.814Z,24.30
2019-01-19T10:32:10.805Z,25.00
2019-01-19T10:33:10.791Z,25.00
2019-01-19T10:34:10.778Z,25.00
2019-01-19T10:35:10.804Z,24.70
2019-01-19T10:36:10.763Z,24.70
2019-01-19T10:37:10.750Z,25.50
2019-01-19T10:38:10.746Z,24.00
2019-01-19T10:39:10.730Z,25.20
2019-01-19T10:40:10.717Z,26.40
2019-01-19T10:41:10.720Z,26.10
2019-01-19T10:42:10.699Z,24.20
2019-01-19T10:43:10.681Z,24.90
2019-01-19T10:44:10.684Z,24.20
2019-01-19T10:45:10.671Z,24.40
2019-01-19T10:46:10.662Z,25.30
2019-01-19T10:47:10.652Z,25.80
2019-01-19T10:48:10.634Z,22.10
2019-01-19T10:49:10.621Z,24.60
2019-01-19T10:50:10.614Z,25.50
2019-01-19T10:51:10.601Z,25.40
2019-01-19T10:52:10.590Z,24.90
2019-01-19T10:53:10.598Z,23.80
2019-01-19T10:54:10.576Z,23.40
2019-01-19T10:55:10.558Z,26.60
2019-01-19T10:56:10.546Z,24.30
2019-01-19T10:57:10.540Z,23.40
2019-01-19T10:58:10.540Z,22.40
2019-01-19T10:59:10.527Z,22.10
2019-01-19T11:00:10.514Z,24.20
2019-01-19T11:01:10.505Z,26.50
2019-01-19T11:02:10.495Z,26.90
2019-01-19T11:03:10.484Z,26.10
2019-01-19T11:04:10.466Z,23.60
2019-01-19T11:05:10.477Z,26.20
2019-01-19T11:06:10.447Z,25.50
2019-01-19T11:07:10.435Z,27.40
2019-01-19T11:08:10.425Z,27.00
2019-01-19T11:09:10.634Z,23.80
2019-01-19T11:10:10.402Z,24.40
2019-01-19T11:11:10.407Z,24.00
2019-01-19T11:12:10.414Z,26.60
2019-01-19T11:13:10.373Z,25.40
2019-01-19T11:14:10.354Z,24.90
2019-01-19T11:15:10.338Z,25.90
2019-01-19T11:16:10.335Z,24.60
2019-01-19T11:17:10.338Z,25.10
2019-01-19T11:18:10.308Z,24.90
2019-01-19T11:19:10.302Z,26.50
2019-01-19T11:20:10.297Z,24.30
2019-01-19T11:21:10.283Z,26.10
2019-01-19T11:22:10.278Z,28.80
2019-01-19T11:23:10.290Z,26.20
2019-01-19T11:24:10.247Z,25.10
2019-01-19T11:25:10.240Z,25.90
2019-01-19T11:26:10.225Z,26.40
2019-01-19T11:27:10.215Z,26.10
2019-01-19T11:28:10.283Z,27.30
2019-01-19T11:29:10.203Z,25.70
2019-01-19T11:30:10.181Z,26.40
2019-01-19T11:31:10.168Z,28.30
2019-01-19T11:32:10.155Z,28.50
2019-01-19T11:33:10.166Z,26.40
2019-01-19T11:34:10.135Z,24.50
2019-01-19T11:35:10.264Z,27.40
2019-01-19T11:36:10.132Z,24.80
2019-01-19T11:37:10.104Z,26.40
2019-01-19T11:38:12.133Z,24.50
2019-01-19T11:39:10.087Z,23.40
2019-01-19T11:40:10.075Z,26.50
2019-01-19T11:41:10.098Z,23.70
2019-01-19T11:42:10.091Z,26.50
2019-01-19T11:43:10.036Z,25.00
2019-01-19T11:44:10.030Z,25.30
2019-01-19T11:45:10.025Z,24.10
2019-01-19T11:46:10.008Z,24.50
2019-01-19T11:47:10.011Z,26.20
2019-01-19T11:48:09.982Z,25.00
2019-01-19T11:49:09.972Z,24.90
2019-01-19T11:50:09.962Z,26.70
2019-01-19T11:51:09.953Z,24.60
2019-01-19T11:52:09.943Z,24.20
2019-01-19T11:53:09.950Z,26.30
2019-01-19T11:54:09.916Z,25.90
2019-01-19T11:55:09.904Z,24.30
2019-01-19T11:56:12.222Z,23.60
2019-01-19T11:57:09.917Z,25.80
2019-01-19T11:58:09.878Z,26.60
2019-01-19T11:59:09.887Z,25.60
2019-01-19T12:00:09.846Z,27.50
2019-01-19T12:01:09.843Z,26.90
2019-01-19T12:02:09.895Z,26.10
2019-01-19T12:03:09.820Z,24.50
2019-01-19T12:04:09.804Z,25.40
2019-01-19T12:05:09.903Z,218.60
2019-01-19T12:06:09.785Z,203.90
2019-01-19T12:07:09.779Z,361.60
2019-01-19T12:08:09.830Z,51.30
2019-01-19T12:09:09.750Z,37.20
2019-01-19T12:10:09.746Z,28.90
2019-01-19T12:11:09.747Z,29.00
2019-01-19T12:12:09.725Z,29.20
2019-01-19T12:13:09.739Z,29.00
2019-01-19T12:14:09.699Z,28.00
2019-01-19T12:15:09.693Z,28.30
2019-01-19T12:16:09.682Z,25.00
2019-01-19T12:17:09.817Z,25.90
2019-01-19T12:18:10.934Z,25.00
2019-01-19T12:19:09.725Z,23.60
2019-01-19T12:20:09.635Z,24.20
2019-01-19T12:21:09.625Z,25.30
2019-01-19T12:22:09.613Z,26.00
2019-01-19T12:23:09.740Z,26.00
2019-01-19T12:24:09.594Z,24.40
2019-01-19T12:25:09.581Z,26.10
2019-01-19T12:26:09.629Z,28.10
2019-01-19T12:27:09.558Z,21.80
2019-01-19T12:28:09.560Z,26.10
2019-01-19T12:29:09.559Z,21.60
2019-01-19T12:30:09.533Z,25.70
2019-01-19T12:31:09.523Z,23.50
2019-01-19T12:32:09.507Z,21.80
2019-01-19T12:33:09.501Z,23.70
2019-01-19T12:34:09.488Z,21.90
2019-01-19T12:35:09.496Z,22.10
2019-01-19T12:36:09.469Z,22.50
2019-01-19T12:37:09.446Z,23.10
2019-01-19T12:38:09.453Z,22.70
2019-01-19T12:39:09.765Z,25.00
2019-01-19T12:40:09.488Z,22.60
2019-01-19T12:41:09.421Z,22.70
2019-01-19T12:42:09.398Z,22.50
2019-01-19T12:43:09.395Z,25.10
2019-01-19T12:44:10.417Z,23.30
2019-01-19T12:45:10.357Z,22.70
2019-01-19T12:46:09.689Z,23.20
2019-01-19T12:47:10.356Z,21.40
2019-01-19T12:48:09.750Z,22.40
2019-01-19T12:49:09.347Z,23.60
2019-01-19T12:50:09.309Z,25.20
2019-01-19T12:51:09.303Z,22.30
2019-01-19T12:52:09.297Z,22.70
2019-01-19T12:53:09.309Z,22.70
2019-01-19T12:54:09.271Z,21.70
2019-01-19T12:55:09.271Z,22.40